logo

United by the hobby
of model aircraft flying

Promoting safe
radio model flying

Sharing the experience
of RC flying

Dedicated to the sport of model aviation

Meeting
Venue

Third Monday Each Month
Crown Point Civic Center
101 S East Street
Crown Point, IN 46307

Read More

email:
[javascript protected email address]

View our events calendar

2021

Weather Conditions

Elev 730 ft    41.19°N  87.16°W

55.0 °F
220°
8 m/h
Wind Variable Wind from SW

Current Conditions

Pressure 30.01 in
Visibility 10 miles
Clouds Clear
Dew Point 39.9 °F
Humidity 56 %
Rainfall 0.00 in
 
METAR KVPZ 260656Z AUTO 22007KT 10SM CLR 13/04 A3001 RMK AO2 SLP160 T01280044

Forecast

INFORMATION PROVIDED BY THE INDIANA STATE FORECAST - NATIONAL WEATHER SERVICE
Sunrise & Sunset
September 26, 2021
4:3 AM

::41 PM
High 72 | Low 53°F
September 27, 2021
4:3 AM

::41 PM
High | Low °F
 

our gallery

View All